Rockaway Beach, New York
Current Conditions -  °F | °C
As of 5:51 AM on Sunday 21 Dec 2014 (Local Time) from KJFK Reporting Station
Overcast Overcast  
Wind Chill: 28°   Ceiling: 2500
Heat Index: 34°   Visibility: 10mi
Dew Point: 23°   Wind: 7mph
Humidity: 64%   Direction: 350°N
Pressure: 30.29"   Gusts: NA
Location:  40.6184°N, 73.8256°W
Report Text: KJFK 211051Z 35006KT 10SM BKN025 OVC035 01/M05 A3029 RMK AO2 SLP257 T00111050 $
Loading
Personal Weather Stations






























Interactive Weather Map New forecast layout! Learn more

10-Day Weather Forecast

Advertisements
Track Severe Weather on mobile